createdAt,value
2019-05-28T00:01:19.308Z,14.17
2019-05-28T00:03:49.204Z,14.17
2019-05-28T00:06:20.221Z,14.16
2019-05-28T00:08:49.963Z,14.16
2019-05-28T00:11:19.974Z,14.12
2019-05-28T00:13:51.660Z,14.08
2019-05-28T00:16:21.598Z,14.03
2019-05-28T00:18:52.899Z,13.95
2019-05-28T00:21:22.736Z,13.87
2019-05-28T00:23:52.946Z,13.80
2019-05-28T00:26:23.123Z,13.71
2019-05-28T00:28:53.050Z,13.64
2019-05-28T00:31:23.519Z,13.63
2019-05-28T00:33:53.448Z,13.59
2019-05-28T00:36:23.577Z,13.51
2019-05-28T00:38:53.531Z,13.45
2019-05-28T00:41:23.611Z,13.37
2019-05-28T00:43:53.690Z,13.31
2019-05-28T00:46:24.532Z,13.26
2019-05-28T00:48:54.668Z,13.21
2019-05-28T00:51:24.855Z,13.11
2019-05-28T00:53:54.875Z,13.06
2019-05-28T00:56:25.249Z,13.00
2019-05-28T00:58:55.866Z,12.95
2019-05-28T01:01:25.693Z,12.92
2019-05-28T01:03:55.864Z,12.88
2019-05-28T01:06:26.001Z,12.86
2019-05-28T01:08:56.092Z,12.83
2019-05-28T01:11:26.057Z,12.83
2019-05-28T01:13:56.063Z,12.79
2019-05-28T01:16:25.991Z,12.73
2019-05-28T01:18:56.209Z,12.74
2019-05-28T01:21:26.220Z,12.69
2019-05-28T01:23:56.243Z,12.62
2019-05-28T01:26:27.974Z,12.57
2019-05-28T01:28:58.128Z,12.57
2019-05-28T01:31:28.061Z,12.54
2019-05-28T01:33:58.090Z,12.51
2019-05-28T01:36:28.830Z,12.46
2019-05-28T01:38:59.000Z,12.48
2019-05-28T01:41:30.142Z,12.44
2019-05-28T01:44:00.038Z,12.44
2019-05-28T01:46:29.964Z,12.42
2019-05-28T01:49:00.410Z,12.37
2019-05-28T01:51:30.230Z,12.34
2019-05-28T01:53:59.975Z,12.32
2019-05-28T01:56:29.734Z,12.24
2019-05-28T01:58:59.444Z,12.18
2019-05-28T02:01:30.799Z,12.18
2019-05-28T02:04:01.178Z,12.08
2019-05-28T02:06:30.947Z,12.02
2019-05-28T02:09:00.991Z,11.99
2019-05-28T02:11:30.792Z,12.00
2019-05-28T02:14:00.521Z,12.00
2019-05-28T02:16:30.371Z,11.98
2019-05-28T02:19:00.210Z,11.95
2019-05-28T02:21:31.186Z,11.92
2019-05-28T02:24:00.922Z,11.90
2019-05-28T02:26:31.430Z,11.87
2019-05-28T02:29:01.143Z,11.84
2019-05-28T02:31:30.940Z,11.82
2019-05-28T02:34:00.888Z,11.79
2019-05-28T02:36:30.784Z,11.74
2019-05-28T02:39:01.976Z,11.73
2019-05-28T02:41:31.855Z,11.66
2019-05-28T02:44:01.855Z,11.63
2019-05-28T02:46:31.544Z,11.61
2019-05-28T02:49:01.282Z,11.60
2019-05-28T02:51:32.598Z,11.59
2019-05-28T02:54:02.670Z,11.59
2019-05-28T02:56:33.462Z,11.57
2019-05-28T02:59:03.828Z,11.55
2019-05-28T03:01:44.517Z,11.50
2019-05-28T03:04:07.906Z,11.49
2019-05-28T03:06:39.911Z,11.46
2019-05-28T03:09:09.916Z,11.45
2019-05-28T03:11:39.835Z,11.41
2019-05-28T03:14:11.326Z,11.41
2019-05-28T03:16:45.626Z,11.40
2019-05-28T03:19:17.456Z,11.40
2019-05-28T03:21:48.882Z,11.39
2019-05-28T03:24:20.939Z,11.44
2019-05-28T03:26:51.577Z,11.43
2019-05-28T03:29:21.984Z,11.41
2019-05-28T03:32:07.282Z,11.36
2019-05-28T03:34:24.286Z,11.34
2019-05-28T03:36:56.386Z,11.33
2019-05-28T03:39:27.744Z,11.34
2019-05-28T03:42:00.186Z,11.33
2019-05-28T03:44:31.109Z,11.30
2019-05-28T03:47:01.552Z,11.29
2019-05-28T03:49:31.993Z,11.34
2019-05-28T03:52:02.382Z,11.33
2019-05-28T03:54:33.725Z,11.36
2019-05-28T03:57:05.494Z,11.33
2019-05-28T03:59:36.060Z,11.32
2019-05-28T04:02:22.464Z,11.29
2019-05-28T04:04:39.180Z,11.30
2019-05-28T04:07:09.772Z,11.35
2019-05-28T04:09:40.707Z,11.38
2019-05-28T04:12:11.372Z,11.42
2019-05-28T04:14:41.724Z,11.45
2019-05-28T04:17:12.252Z,11.49
2019-05-28T04:19:42.848Z,11.48
2019-05-28T04:22:13.508Z,11.45
2019-05-28T04:24:44.268Z,11.48
2019-05-28T04:27:14.494Z,11.45
2019-05-28T04:29:45.381Z,11.45
2019-05-28T04:32:15.758Z,11.45
2019-05-28T04:34:46.267Z,11.46
2019-05-28T04:37:18.351Z,11.43
2019-05-28T04:39:50.605Z,11.44
2019-05-28T04:42:21.524Z,11.42
2019-05-28T04:44:52.149Z,11.41
2019-05-28T04:47:23.531Z,11.38
2019-05-28T04:49:54.019Z,11.38
2019-05-28T04:52:24.376Z,11.39
2019-05-28T04:54:55.025Z,11.36
2019-05-28T04:57:25.472Z,11.36
2019-05-28T04:59:56.235Z,11.37
2019-05-28T05:02:26.877Z,11.41
2019-05-28T05:04:57.455Z,11.38
2019-05-28T05:07:27.935Z,11.41
2019-05-28T05:09:58.988Z,11.40
2019-05-28T05:12:30.504Z,11.40
2019-05-28T05:15:02.803Z,11.43
2019-05-28T05:17:35.270Z,11.50
2019-05-28T05:20:08.042Z,11.48
2019-05-28T05:22:40.120Z,11.55
2019-05-28T05:25:11.737Z,11.59
2019-05-28T05:27:42.779Z,11.57
2019-05-28T05:30:14.139Z,11.60
2019-05-28T05:32:44.412Z,11.60
2019-05-28T05:35:15.176Z,11.65
2019-05-28T05:37:46.894Z,11.67
2019-05-28T05:40:17.803Z,11.61
2019-05-28T05:42:48.332Z,11.56
2019-05-28T05:45:18.822Z,11.47
2019-05-28T05:47:49.623Z,11.52
2019-05-28T05:50:20.665Z,11.53
2019-05-28T05:52:51.001Z,11.51
2019-05-28T05:55:21.178Z,11.51
2019-05-28T05:57:51.634Z,11.46
2019-05-28T06:00:22.053Z,11.43
2019-05-28T06:02:52.923Z,11.41
2019-05-28T06:05:23.094Z,11.45
2019-05-28T06:07:55.616Z,11.42
2019-05-28T06:10:27.921Z,11.41
2019-05-28T06:12:58.079Z,11.40
2019-05-28T06:15:29.176Z,11.34
2019-05-28T06:17:59.473Z,11.40
2019-05-28T06:20:29.913Z,11.52
2019-05-28T06:23:00.203Z,11.67
2019-05-28T06:25:30.835Z,11.96
2019-05-28T06:28:01.173Z,12.21
2019-05-28T06:30:31.508Z,12.43
2019-05-28T06:33:02.907Z,12.52
2019-05-28T06:35:33.129Z,12.38
2019-05-28T06:38:03.340Z,12.31
2019-05-28T06:40:33.691Z,12.21
2019-05-28T06:43:03.920Z,12.14
2019-05-28T06:45:34.321Z,12.12
2019-05-28T06:48:06.544Z,12.06
2019-05-28T06:50:36.610Z,12.12
2019-05-28T06:53:06.619Z,12.42
2019-05-28T06:55:38.153Z,12.58
2019-05-28T06:58:08.423Z,12.79
2019-05-28T07:00:38.769Z,12.91
2019-05-28T07:03:10.331Z,13.11
2019-05-28T07:05:40.610Z,13.18
2019-05-28T07:08:11.096Z,13.22
2019-05-28T07:10:56.691Z,12.91
2019-05-28T07:13:13.154Z,13.08
2019-05-28T07:15:44.322Z,13.08
2019-05-28T07:18:14.616Z,13.05
2019-05-28T07:20:44.956Z,13.29
2019-05-28T07:23:15.749Z,13.64
2019-05-28T07:25:47.372Z,13.97
2019-05-28T07:28:17.551Z,14.56
2019-05-28T07:30:47.872Z,14.69
2019-05-28T07:33:18.222Z,14.54
2019-05-28T07:35:49.962Z,14.26
2019-05-28T07:38:20.334Z,14.09
2019-05-28T07:40:50.653Z,14.06
2019-05-28T07:43:20.995Z,14.09
2019-05-28T07:45:51.083Z,14.27
2019-05-28T07:48:22.844Z,14.42
2019-05-28T07:50:53.078Z,14.07
2019-05-28T07:53:38.770Z,14.25
2019-05-28T07:55:55.680Z,14.37
2019-05-28T07:58:26.029Z,14.57
2019-05-28T08:00:56.268Z,14.58
2019-05-28T08:03:26.301Z,14.48
2019-05-28T08:05:56.681Z,14.21
2019-05-28T08:08:27.254Z,14.17
2019-05-28T08:10:57.693Z,14.56
2019-05-28T08:13:40.075Z,14.56
2019-05-28T08:16:16.852Z,14.42
2019-05-28T08:18:33.097Z,14.66
2019-05-28T08:21:03.505Z,14.98
2019-05-28T08:23:33.816Z,15.28
2019-05-28T08:26:05.130Z,15.75
2019-05-28T08:28:35.548Z,15.82
2019-05-28T08:31:15.313Z,16.24
2019-05-28T08:33:39.665Z,16.06
2019-05-28T08:36:09.981Z,16.05
2019-05-28T08:38:40.389Z,16.24
2019-05-28T08:41:10.510Z,16.10
2019-05-28T08:43:40.615Z,16.12
2019-05-28T08:46:10.755Z,16.52
2019-05-28T08:48:40.940Z,17.19
2019-05-28T08:51:13.457Z,16.44
2019-05-28T08:53:44.677Z,17.23
2019-05-28T08:56:14.844Z,17.59
2019-05-28T08:58:45.494Z,18.06
2019-05-28T09:01:16.496Z,17.79
2019-05-28T09:03:46.817Z,18.22
2019-05-28T09:06:23.190Z,17.93
2019-05-28T09:08:51.447Z,17.60
2019-05-28T09:11:21.948Z,16.73
2019-05-28T09:13:52.219Z,15.83
2019-05-28T09:16:22.599Z,14.53
2019-05-28T09:18:52.845Z,13.95
2019-05-28T09:21:22.973Z,13.52
2019-05-28T09:23:53.270Z,13.20
2019-05-28T09:26:23.604Z,13.17
2019-05-28T09:28:53.953Z,13.28
2019-05-28T09:31:24.429Z,13.96
2019-05-28T09:33:55.786Z,14.44
2019-05-28T09:36:26.310Z,14.56
2019-05-28T09:38:56.397Z,15.30
2019-05-28T09:41:26.675Z,16.80
2019-05-28T09:43:56.989Z,17.97
2019-05-28T09:46:29.511Z,18.35
2019-05-28T09:49:01.683Z,18.90
2019-05-28T09:51:31.910Z,19.69
2019-05-28T09:54:02.305Z,18.40
2019-05-28T09:56:33.285Z,16.56
2019-05-28T09:59:03.710Z,16.01
2019-05-28T10:01:37.161Z,15.24
2019-05-28T10:04:07.973Z,14.87
2019-05-28T10:06:41.579Z,14.60
2019-05-28T10:09:10.207Z,14.41
2019-05-28T10:11:40.680Z,14.02
2019-05-28T10:14:11.366Z,13.69
2019-05-28T10:16:41.383Z,13.83
2019-05-28T10:19:11.801Z,13.92
2019-05-28T10:21:42.407Z,14.28
2019-05-28T10:24:14.123Z,15.25
2019-05-28T10:26:44.179Z,16.61
2019-05-28T10:29:14.338Z,17.79
2019-05-28T10:31:44.907Z,18.02
2019-05-28T10:34:18.554Z,17.78
2019-05-28T10:36:48.898Z,16.29
2019-05-28T10:39:19.490Z,18.33
2019-05-28T10:41:49.550Z,19.52
2019-05-28T10:44:20.466Z,19.40
2019-05-28T10:46:50.762Z,17.51
2019-05-28T10:49:20.942Z,15.46
2019-05-28T10:51:51.332Z,14.19
2019-05-28T10:54:21.380Z,13.58
2019-05-28T10:56:51.902Z,13.33
2019-05-28T10:59:22.118Z,13.32
2019-05-28T11:01:52.417Z,13.21
2019-05-28T11:04:22.543Z,12.97
2019-05-28T11:06:52.945Z,12.99
2019-05-28T11:09:23.638Z,13.10
2019-05-28T11:11:54.058Z,14.18
2019-05-28T11:14:24.618Z,15.42
2019-05-28T11:16:55.223Z,16.68
2019-05-28T11:19:25.997Z,17.72
2019-05-28T11:21:56.354Z,18.43
2019-05-28T11:24:26.506Z,19.18
2019-05-28T11:26:56.580Z,19.71
2019-05-28T11:29:28.405Z,19.94
2019-05-28T11:31:59.870Z,19.45
2019-05-28T11:34:30.368Z,19.93
2019-05-28T11:37:09.313Z,19.83
2019-05-28T11:39:33.022Z,20.10
2019-05-28T11:42:05.104Z,19.30
2019-05-28T11:44:35.591Z,17.83
2019-05-28T11:47:06.322Z,17.02
2019-05-28T11:49:36.704Z,16.69
2019-05-28T11:52:07.184Z,16.52
2019-05-28T11:54:37.323Z,18.13
2019-05-28T11:57:07.674Z,18.77
2019-05-28T11:59:37.995Z,18.97
2019-05-28T12:02:08.679Z,19.92
2019-05-28T12:04:39.112Z,20.10
2019-05-28T12:07:25.080Z,20.99
2019-05-28T12:09:42.241Z,20.69
2019-05-28T12:12:14.428Z,21.36
2019-05-28T12:14:44.841Z,21.32
2019-05-28T12:17:16.653Z,21.37
2019-05-28T12:19:47.145Z,19.41
2019-05-28T12:22:17.843Z,18.38
2019-05-28T12:24:48.794Z,17.34
2019-05-28T12:27:19.570Z,17.10
2019-05-28T12:29:52.253Z,17.14
2019-05-28T12:32:22.292Z,17.42
2019-05-28T12:34:53.072Z,17.19
2019-05-28T12:37:23.601Z,19.35
2019-05-28T12:39:54.376Z,21.18
2019-05-28T12:42:24.968Z,22.63
2019-05-28T12:45:08.923Z,22.10
2019-05-28T12:47:28.483Z,20.42
2019-05-28T12:50:17.198Z,18.16
2019-05-28T12:52:31.525Z,17.30
2019-05-28T12:55:03.065Z,17.31
2019-05-28T12:57:33.582Z,17.01
2019-05-28T13:00:05.504Z,17.03
2019-05-28T13:02:35.990Z,17.64
2019-05-28T13:05:11.143Z,17.70
2019-05-28T13:07:44.443Z,19.28
2019-05-28T13:10:15.496Z,19.85
2019-05-28T13:12:46.243Z,18.83
2019-05-28T13:15:19.456Z,18.80
2019-05-28T13:17:50.106Z,18.20
2019-05-28T13:20:20.544Z,17.67
2019-05-28T13:22:53.089Z,18.60
2019-05-28T13:25:23.940Z,20.25
2019-05-28T13:27:54.759Z,20.99
2019-05-28T13:30:26.112Z,19.45
2019-05-28T13:32:56.551Z,19.49
2019-05-28T13:35:29.504Z,18.48
2019-05-28T13:38:00.284Z,17.65
2019-05-28T13:40:30.940Z,16.74
2019-05-28T13:43:01.188Z,16.11
2019-05-28T13:45:31.637Z,15.55
2019-05-28T13:48:02.430Z,15.22
2019-05-28T13:50:34.492Z,14.86
2019-05-28T13:53:05.190Z,14.46
2019-05-28T13:55:35.761Z,14.34
2019-05-28T13:58:06.812Z,14.55
2019-05-28T14:00:37.174Z,15.09
2019-05-28T14:03:07.494Z,15.18
2019-05-28T14:05:38.520Z,15.10
2019-05-28T14:08:10.578Z,14.96
2019-05-28T14:10:40.787Z,14.85
2019-05-28T14:13:11.140Z,15.74
2019-05-28T14:15:41.495Z,17.78
2019-05-28T14:18:13.124Z,18.86
2019-05-28T14:20:43.713Z,19.84
2019-05-28T14:23:14.258Z,20.28
2019-05-28T14:25:45.559Z,20.18
2019-05-28T14:28:16.059Z,20.05
2019-05-28T14:30:59.246Z,20.65
2019-05-28T14:33:19.550Z,21.08
2019-05-28T14:35:50.295Z,21.22
2019-05-28T14:38:20.744Z,21.45
2019-05-28T14:40:51.782Z,20.97
2019-05-28T14:43:22.603Z,21.45
2019-05-28T14:45:52.815Z,20.73
2019-05-28T14:48:23.074Z,20.69
2019-05-28T14:50:53.457Z,21.25
2019-05-28T14:53:24.324Z,20.56
2019-05-28T14:55:54.813Z,20.75
2019-05-28T14:58:25.313Z,20.51
2019-05-28T15:00:55.694Z,20.36
2019-05-28T15:03:26.244Z,20.27
2019-05-28T15:05:56.697Z,20.17
2019-05-28T15:08:27.430Z,18.90
2019-05-28T15:10:58.913Z,18.49
2019-05-28T15:13:30.874Z,19.28
2019-05-28T15:16:01.478Z,19.88
2019-05-28T15:18:32.332Z,18.86
2019-05-28T15:21:02.538Z,18.83
2019-05-28T15:23:32.996Z,18.61
2019-05-28T15:26:03.509Z,19.16
2019-05-28T15:28:33.696Z,18.74
2019-05-28T15:31:04.212Z,18.32
2019-05-28T15:33:34.869Z,18.44
2019-05-28T15:36:05.476Z,17.73
2019-05-28T15:38:35.859Z,17.97
2019-05-28T15:41:06.380Z,19.28
2019-05-28T15:43:36.886Z,19.72
2019-05-28T15:46:07.352Z,19.36
2019-05-28T15:48:38.335Z,19.56
2019-05-28T15:51:09.099Z,19.18
2019-05-28T15:53:40.019Z,18.50
2019-05-28T15:56:12.383Z,18.33
2019-05-28T15:58:43.054Z,18.15
2019-05-28T16:01:13.449Z,18.48
2019-05-28T16:03:44.157Z,18.69
2019-05-28T16:06:15.095Z,18.20
2019-05-28T16:08:46.150Z,17.67
2019-05-28T16:11:16.850Z,16.96
2019-05-28T16:13:47.144Z,16.97
2019-05-28T16:16:19.512Z,17.05
2019-05-28T16:18:50.122Z,16.96
2019-05-28T16:21:23.235Z,17.62
2019-05-28T16:23:53.572Z,17.58
2019-05-28T16:26:24.114Z,17.65
2019-05-28T16:28:56.682Z,17.91
2019-05-28T16:31:26.938Z,18.03
2019-05-28T16:33:57.197Z,18.10
2019-05-28T16:36:28.296Z,17.67
2019-05-28T16:38:58.943Z,17.76
2019-05-28T16:41:29.361Z,17.22
2019-05-28T16:44:00.076Z,17.03
2019-05-28T16:46:30.457Z,17.08
2019-05-28T16:49:00.815Z,16.86
2019-05-28T16:51:31.093Z,16.98
2019-05-28T16:54:18.198Z,17.16
2019-05-28T16:56:35.544Z,17.17
2019-05-28T16:59:05.567Z,17.56
2019-05-28T17:01:35.975Z,17.41
2019-05-28T17:04:06.423Z,17.23
2019-05-28T17:06:38.432Z,17.01
2019-05-28T17:09:09.387Z,16.89
2019-05-28T17:11:39.921Z,16.54
2019-05-28T17:14:10.437Z,16.60
2019-05-28T17:16:41.014Z,16.51
2019-05-28T17:19:11.370Z,16.50
2019-05-28T17:21:42.126Z,16.41
2019-05-28T17:24:12.737Z,16.17
2019-05-28T17:26:43.284Z,16.09
2019-05-28T17:29:14.208Z,16.06
2019-05-28T17:31:44.911Z,15.95
2019-05-28T17:34:16.200Z,15.62
2019-05-28T17:36:46.801Z,15.39
2019-05-28T17:39:17.505Z,15.23
2019-05-28T17:41:48.054Z,14.95
2019-05-28T17:44:18.808Z,14.66
2019-05-28T17:46:49.119Z,14.61
2019-05-28T17:49:19.456Z,14.27
2019-05-28T17:51:52.313Z,14.10
2019-05-28T17:54:22.844Z,13.80
2019-05-28T17:56:54.901Z,13.52
2019-05-28T17:59:25.080Z,13.36
2019-05-28T18:01:56.204Z,13.32
2019-05-28T18:04:26.494Z,13.26
2019-05-28T18:06:57.542Z,13.26
2019-05-28T18:09:30.282Z,13.32
2019-05-28T18:12:00.273Z,13.34
2019-05-28T18:14:32.442Z,13.36
2019-05-28T18:17:03.296Z,13.33
2019-05-28T18:19:34.215Z,13.35
2019-05-28T18:22:04.990Z,13.30
2019-05-28T18:24:35.838Z,13.25
2019-05-28T18:27:06.270Z,13.25
2019-05-28T18:29:37.185Z,13.32
2019-05-28T18:32:07.811Z,13.34
2019-05-28T18:34:39.402Z,13.36
2019-05-28T18:37:09.879Z,13.32
2019-05-28T18:39:40.286Z,13.27
2019-05-28T18:42:10.755Z,13.29
2019-05-28T18:44:41.230Z,13.36
2019-05-28T18:47:11.340Z,13.30
2019-05-28T18:49:41.417Z,13.26
2019-05-28T18:52:11.924Z,13.17
2019-05-28T18:54:45.178Z,13.03
2019-05-28T18:57:15.480Z,12.94
2019-05-28T18:59:46.301Z,12.88
2019-05-28T19:02:16.860Z,12.78
2019-05-28T19:04:47.918Z,12.68
2019-05-28T19:07:19.402Z,12.67
2019-05-28T19:09:49.945Z,12.64
2019-05-28T19:12:20.256Z,12.58
2019-05-28T19:14:51.582Z,12.54
2019-05-28T19:17:22.607Z,12.44
2019-05-28T19:19:52.967Z,12.31
2019-05-28T19:22:23.610Z,12.19
2019-05-28T19:24:57.286Z,12.10
2019-05-28T19:27:26.845Z,12.04
2019-05-28T19:29:57.466Z,12.01
2019-05-28T19:32:28.507Z,11.99
2019-05-28T19:35:00.250Z,11.94
2019-05-28T19:37:30.861Z,11.95
2019-05-28T19:40:01.420Z,11.95
2019-05-28T19:42:32.141Z,12.01
2019-05-28T19:45:02.838Z,11.99
2019-05-28T19:47:34.877Z,12.03
2019-05-28T19:50:07.378Z,12.08
2019-05-28T19:52:37.571Z,12.04
2019-05-28T19:55:07.891Z,12.03
2019-05-28T19:57:38.065Z,12.00
2019-05-28T20:00:08.862Z,11.97
2019-05-28T20:02:38.852Z,11.98
2019-05-28T20:05:08.715Z,11.93
2019-05-28T20:07:38.565Z,11.87
2019-05-28T20:10:09.937Z,11.80
2019-05-28T20:12:39.815Z,11.71
2019-05-28T20:15:14.374Z,11.66
2019-05-28T20:17:44.049Z,11.65
2019-05-28T20:20:14.188Z,11.68
2019-05-28T20:22:44.211Z,11.64
2019-05-28T20:25:15.469Z,11.61
2019-05-28T20:27:47.532Z,11.62
2019-05-28T20:30:19.324Z,11.63
2019-05-28T20:32:48.901Z,11.64
2019-05-28T20:35:19.022Z,11.60
2019-05-28T20:37:48.950Z,11.54
2019-05-28T20:40:20.398Z,11.47
2019-05-28T20:42:50.289Z,11.41
2019-05-28T20:45:21.025Z,11.37
2019-05-28T20:47:50.662Z,11.34
2019-05-28T20:50:21.431Z,11.29
2019-05-28T20:52:51.712Z,11.21
2019-05-28T20:55:22.222Z,11.22
2019-05-28T20:57:51.930Z,11.30
2019-05-28T21:00:23.141Z,11.32
2019-05-28T21:02:55.742Z,11.26
2019-05-28T21:05:25.573Z,11.25
2019-05-28T21:07:56.236Z,11.28
2019-05-28T21:10:26.120Z,11.33
2019-05-28T21:12:56.948Z,11.38
2019-05-28T21:15:27.470Z,11.50
2019-05-28T21:17:57.405Z,11.62
2019-05-28T21:20:27.322Z,11.72
2019-05-28T21:22:58.742Z,11.75
2019-05-28T21:25:28.914Z,11.84
2019-05-28T21:27:58.772Z,11.81
2019-05-28T21:30:29.961Z,11.80
2019-05-28T21:33:00.927Z,11.84
2019-05-28T21:35:30.679Z,11.85
2019-05-28T21:38:01.331Z,11.77
2019-05-28T21:40:31.177Z,11.74
2019-05-28T21:43:08.933Z,11.77
2019-05-28T21:45:32.294Z,11.82
2019-05-28T21:48:03.049Z,11.80
2019-05-28T21:50:32.966Z,11.82
2019-05-28T21:53:04.446Z,11.90
2019-05-28T21:55:34.183Z,11.88
2019-05-28T21:58:04.112Z,11.92
2019-05-28T22:00:50.913Z,11.96
2019-05-28T22:03:21.083Z,11.92
2019-05-28T22:05:50.911Z,11.86
2019-05-28T22:08:21.022Z,11.79
2019-05-28T22:10:50.838Z,11.78
2019-05-28T22:13:22.605Z,11.69
2019-05-28T22:15:52.180Z,11.64
2019-05-28T22:18:25.789Z,11.66
2019-05-28T22:20:56.602Z,11.70
2019-05-28T22:23:29.187Z,11.71
2019-05-28T22:25:58.979Z,11.64
2019-05-28T22:28:28.721Z,11.61
2019-05-28T22:30:59.490Z,11.54
2019-05-28T22:33:29.640Z,11.42
2019-05-28T22:35:59.328Z,11.38
2019-05-28T22:38:29.110Z,11.40
2019-05-28T22:40:58.706Z,11.43
2019-05-28T22:43:31.741Z,11.37
2019-05-28T22:46:01.282Z,11.25
2019-05-28T22:48:31.328Z,11.17
2019-05-28T22:51:01.474Z,11.14
2019-05-28T22:53:31.494Z,11.13
2019-05-28T22:56:05.232Z,11.17
2019-05-28T22:58:34.932Z,11.09
2019-05-28T23:01:04.899Z,10.97
2019-05-28T23:03:34.578Z,10.83
2019-05-28T23:06:05.436Z,10.76
2019-05-28T23:08:35.239Z,10.72
2019-05-28T23:11:06.408Z,10.71
2019-05-28T23:13:46.405Z,10.69
2019-05-28T23:16:08.580Z,10.69
2019-05-28T23:18:38.385Z,10.68
2019-05-28T23:21:08.865Z,10.73
2019-05-28T23:23:38.618Z,10.78
2019-05-28T23:26:09.351Z,10.75
2019-05-28T23:28:39.369Z,10.72
2019-05-28T23:31:10.054Z,10.73
2019-05-28T23:33:40.047Z,10.73
2019-05-28T23:36:10.686Z,10.71
2019-05-28T23:38:40.464Z,10.66
2019-05-28T23:41:11.325Z,10.60
2019-05-28T23:43:41.132Z,10.52
2019-05-28T23:46:12.025Z,10.41
2019-05-28T23:48:41.951Z,10.36
2019-05-28T23:51:12.569Z,10.35
2019-05-28T23:53:42.334Z,10.25
2019-05-28T23:56:13.903Z,10.22
2019-05-28T23:58:43.872Z,10.10
